createdAt,value
2023-08-17T00:01:33.582Z,49.63
2023-08-17T00:04:00.239Z,49.85
2023-08-17T00:06:27.058Z,49.64
2023-08-17T00:08:53.700Z,49.56
2023-08-17T00:11:20.284Z,50.02
2023-08-17T00:13:46.888Z,50.09
2023-08-17T00:16:13.622Z,50.07
2023-08-17T00:18:40.284Z,50.79
2023-08-17T00:21:07.254Z,50.32
2023-08-17T00:23:33.886Z,50.42
2023-08-17T00:26:00.478Z,50.58
2023-08-17T00:28:27.095Z,51.04
2023-08-17T00:30:53.741Z,50.65
2023-08-17T00:33:20.424Z,50.34
2023-08-17T00:35:47.296Z,50.27
2023-08-17T00:38:13.928Z,50.72
2023-08-17T00:40:40.604Z,50.73
2023-08-17T00:43:08.524Z,50.16
2023-08-17T00:45:36.719Z,50.74
2023-08-17T00:48:08.588Z,50.40
2023-08-17T00:50:36.093Z,50.70
2023-08-17T00:53:03.955Z,50.57
2023-08-17T00:55:30.868Z,50.47
2023-08-17T00:57:58.436Z,50.23
2023-08-17T01:00:28.933Z,50.22
2023-08-17T01:02:58.030Z,50.01
2023-08-17T01:05:25.333Z,49.81
2023-08-17T01:07:52.063Z,49.96
2023-08-17T01:10:19.260Z,51.85
2023-08-17T01:13:19.188Z,51.29
2023-08-17T01:15:53.507Z,50.93
2023-08-17T01:18:35.614Z,50.64
2023-08-17T01:21:04.549Z,51.17
2023-08-17T01:23:31.407Z,50.33
2023-08-17T01:25:58.629Z,50.54
2023-08-17T01:28:25.789Z,50.48
2023-08-17T01:31:04.435Z,50.55
2023-08-17T01:33:47.331Z,50.93
2023-08-17T01:36:40.968Z,50.85
2023-08-17T01:39:09.380Z,50.65
2023-08-17T01:41:37.211Z,50.57
2023-08-17T01:44:06.006Z,50.69
2023-08-17T01:46:34.055Z,50.63
2023-08-17T01:49:00.887Z,50.91
2023-08-17T01:51:27.625Z,50.33
2023-08-17T01:53:54.272Z,50.95
2023-08-17T01:56:20.865Z,50.98
2023-08-17T01:58:47.508Z,51.22
2023-08-17T02:01:14.142Z,51.26
2023-08-17T02:03:40.736Z,51.45
2023-08-17T02:06:07.351Z,51.63
2023-08-17T02:08:35.338Z,51.84
2023-08-17T02:11:02.031Z,50.97
2023-08-17T02:13:28.612Z,51.20
2023-08-17T02:16:00.623Z,51.35
2023-08-17T02:18:27.175Z,51.55
2023-08-17T02:20:53.720Z,52.17
2023-08-17T02:23:20.289Z,52.21
2023-08-17T02:25:46.846Z,52.18
2023-08-17T02:28:13.786Z,51.95
2023-08-17T02:30:40.839Z,51.92
2023-08-17T02:33:08.581Z,51.53
2023-08-17T02:35:35.231Z,51.31
2023-08-17T02:38:01.892Z,51.67
2023-08-17T02:40:28.498Z,52.14
2023-08-17T02:42:55.065Z,52.22
2023-08-17T02:45:23.044Z,51.97
2023-08-17T02:47:49.668Z,51.69
2023-08-17T02:50:16.462Z,52.03
2023-08-17T02:52:43.875Z,52.08
2023-08-17T02:55:10.503Z,52.50
2023-08-17T02:57:37.075Z,52.68
2023-08-17T03:00:05.192Z,52.61
2023-08-17T03:02:31.819Z,51.77
2023-08-17T03:04:58.547Z,51.95
2023-08-17T03:07:25.303Z,52.66
2023-08-17T03:09:52.066Z,52.56
2023-08-17T03:12:19.083Z,51.77
2023-08-17T03:14:45.694Z,52.07
2023-08-17T03:17:13.471Z,51.94
2023-08-17T03:19:40.150Z,51.98
2023-08-17T03:22:06.800Z,52.02
2023-08-17T03:24:33.466Z,52.47
2023-08-17T03:27:00.574Z,51.91
2023-08-17T03:29:28.010Z,52.09
2023-08-17T03:31:56.909Z,52.04
2023-08-17T03:34:23.978Z,51.61
2023-08-17T03:36:51.113Z,51.50
2023-08-17T03:39:17.734Z,52.05
2023-08-17T03:41:44.634Z,52.02
2023-08-17T03:44:11.277Z,51.57
2023-08-17T03:46:37.937Z,51.88
2023-08-17T03:49:05.108Z,51.30
2023-08-17T03:51:32.027Z,51.45
2023-08-17T03:53:58.695Z,51.50
2023-08-17T03:56:25.288Z,51.78
2023-08-17T03:58:54.143Z,51.45
2023-08-17T04:01:21.533Z,51.69
2023-08-17T04:03:48.263Z,51.68
2023-08-17T04:06:15.118Z,51.61
2023-08-17T04:08:42.997Z,51.21
2023-08-17T04:11:09.618Z,51.06
2023-08-17T04:13:36.170Z,52.21
2023-08-17T04:16:02.867Z,51.60
2023-08-17T04:18:29.558Z,51.56
2023-08-17T04:20:56.219Z,51.16
2023-08-17T04:23:22.906Z,51.36
2023-08-17T04:25:49.602Z,52.38
2023-08-17T04:28:17.001Z,52.08
2023-08-17T04:30:44.437Z,51.98
2023-08-17T04:33:11.137Z,52.04
2023-08-17T04:35:38.636Z,51.87
2023-08-17T04:38:05.394Z,52.15
2023-08-17T04:40:32.970Z,51.95
2023-08-17T04:43:00.088Z,51.94
2023-08-17T04:45:27.850Z,51.60
2023-08-17T04:47:54.576Z,52.66
2023-08-17T04:50:21.305Z,52.33
2023-08-17T04:52:48.701Z,52.38
2023-08-17T04:55:15.586Z,52.14
2023-08-17T04:57:43.322Z,52.26
2023-08-17T05:00:12.448Z,51.92
2023-08-17T05:02:39.238Z,51.66
2023-08-17T05:05:07.711Z,51.64
2023-08-17T05:07:34.842Z,52.05
2023-08-17T05:10:02.051Z,52.27
2023-08-17T05:12:34.061Z,52.15
2023-08-17T05:15:00.966Z,51.44
2023-08-17T05:17:28.103Z,51.73
2023-08-17T05:19:56.922Z,51.90
2023-08-17T05:22:23.609Z,51.63
2023-08-17T05:24:50.250Z,51.28
2023-08-17T05:27:18.905Z,51.87
2023-08-17T05:29:45.567Z,51.83
2023-08-17T05:32:12.224Z,51.49
2023-08-17T05:34:39.104Z,51.62
2023-08-17T05:37:05.762Z,51.08
2023-08-17T05:39:33.594Z,50.90
2023-08-17T05:42:01.870Z,51.49
2023-08-17T05:44:28.470Z,51.51
2023-08-17T05:46:55.084Z,51.04
2023-08-17T05:49:21.737Z,51.50
2023-08-17T05:51:48.284Z,51.32
2023-08-17T05:54:14.933Z,51.13
2023-08-17T05:56:45.684Z,50.81
2023-08-17T05:59:12.363Z,50.79
2023-08-17T06:01:39.014Z,50.74
2023-08-17T06:04:07.014Z,51.08
2023-08-17T06:06:34.789Z,50.54
2023-08-17T06:09:01.439Z,50.27
2023-08-17T06:11:28.032Z,50.46
2023-08-17T06:13:54.658Z,49.17
2023-08-17T06:16:21.251Z,49.02
2023-08-17T06:18:47.823Z,48.70
2023-08-17T06:21:14.412Z,47.75
2023-08-17T06:23:40.944Z,47.73
2023-08-17T06:26:08.918Z,47.65
2023-08-17T06:28:35.469Z,47.82
2023-08-17T06:31:02.482Z,47.83
2023-08-17T06:33:29.053Z,46.88
2023-08-17T06:35:55.637Z,47.17
2023-08-17T06:38:22.201Z,46.92
2023-08-17T06:40:49.093Z,46.77
2023-08-17T06:43:17.190Z,46.62
2023-08-17T06:45:45.577Z,46.16
2023-08-17T06:48:12.200Z,46.04
2023-08-17T06:50:39.044Z,45.22
2023-08-17T06:53:06.030Z,45.68
2023-08-17T06:55:32.660Z,45.56
2023-08-17T06:57:59.888Z,44.71
2023-08-17T07:00:27.108Z,45.11
2023-08-17T07:02:56.325Z,45.04
2023-08-17T07:05:25.405Z,43.89
2023-08-17T07:07:52.450Z,42.97
2023-08-17T07:10:19.013Z,42.90
2023-08-17T07:12:46.081Z,42.91
2023-08-17T07:15:13.522Z,42.94
2023-08-17T07:17:40.584Z,42.28
2023-08-17T07:20:16.338Z,42.48
2023-08-17T07:22:43.849Z,41.84
2023-08-17T07:25:10.591Z,41.46
2023-08-17T07:27:37.457Z,41.54
2023-08-17T07:30:04.323Z,41.50
2023-08-17T07:32:31.145Z,40.65
2023-08-17T07:34:57.992Z,40.84
2023-08-17T07:37:24.972Z,40.60
2023-08-17T07:39:51.871Z,40.60
2023-08-17T07:42:18.519Z,39.97
2023-08-17T07:44:45.243Z,39.27
2023-08-17T07:47:11.908Z,38.89
2023-08-17T07:49:38.542Z,39.57
2023-08-17T07:52:05.155Z,38.40
2023-08-17T07:54:31.801Z,38.62
2023-08-17T07:56:58.383Z,38.74
2023-08-17T07:59:25.292Z,38.28
2023-08-17T08:01:52.018Z,38.32
2023-08-17T08:04:18.649Z,38.12
2023-08-17T08:06:45.204Z,38.06
2023-08-17T08:09:11.781Z,38.54
2023-08-17T08:11:38.415Z,37.89
2023-08-17T08:14:05.295Z,37.97
2023-08-17T08:16:32.041Z,37.45
2023-08-17T08:18:58.946Z,37.60
2023-08-17T08:21:25.935Z,37.59
2023-08-17T08:23:52.534Z,37.18
2023-08-17T08:26:19.118Z,37.17
2023-08-17T08:28:46.282Z,37.10
2023-08-17T08:31:13.076Z,35.88
2023-08-17T08:33:39.805Z,36.28
2023-08-17T08:36:07.498Z,36.19
2023-08-17T08:38:34.103Z,36.75
2023-08-17T08:41:01.637Z,36.22
2023-08-17T08:43:28.235Z,35.46
2023-08-17T08:45:56.505Z,35.44
2023-08-17T08:48:24.147Z,36.06
2023-08-17T08:50:51.558Z,35.52
2023-08-17T08:53:24.681Z,35.41
2023-08-17T08:55:58.688Z,35.07
2023-08-17T08:58:26.350Z,35.10
2023-08-17T09:00:53.557Z,35.32
2023-08-17T09:03:21.639Z,34.81
2023-08-17T09:05:49.583Z,34.53
2023-08-17T09:08:28.573Z,34.15
2023-08-17T09:10:55.171Z,33.94
2023-08-17T09:13:22.040Z,34.31
2023-08-17T09:15:48.710Z,34.67
2023-08-17T09:18:16.999Z,34.02
2023-08-17T09:20:49.334Z,33.99
2023-08-17T09:23:20.970Z,33.59
2023-08-17T09:25:48.814Z,33.59
2023-08-17T09:28:17.538Z,33.60
2023-08-17T09:30:54.056Z,32.94
2023-08-17T09:33:23.272Z,32.86
2023-08-17T09:35:51.439Z,33.21
2023-08-17T09:38:18.934Z,32.70
2023-08-17T09:40:45.937Z,32.66
2023-08-17T09:43:14.161Z,32.64
2023-08-17T09:45:40.837Z,32.44
2023-08-17T09:48:10.564Z,31.89
2023-08-17T09:50:38.919Z,31.86
2023-08-17T09:53:05.904Z,30.94
2023-08-17T09:55:35.731Z,31.08
2023-08-17T09:58:03.190Z,30.96
2023-08-17T10:00:31.349Z,30.47
2023-08-17T10:02:58.979Z,30.84
2023-08-17T10:05:29.448Z,30.38
2023-08-17T10:07:59.158Z,30.55
2023-08-17T10:10:27.607Z,30.35
2023-08-17T10:13:38.708Z,29.78
2023-08-17T10:16:12.153Z,29.96
2023-08-17T10:18:46.715Z,29.76
2023-08-17T10:21:24.335Z,29.21
2023-08-17T10:23:53.042Z,29.33
2023-08-17T10:26:21.072Z,28.93
2023-08-17T10:28:47.977Z,27.90
2023-08-17T10:31:15.356Z,27.97
2023-08-17T10:33:45.636Z,28.20
2023-08-17T10:36:13.946Z,27.88
2023-08-17T10:38:40.782Z,28.08
2023-08-17T10:41:17.788Z,28.26
2023-08-17T10:44:00.764Z,27.65
2023-08-17T10:46:38.307Z,27.81
2023-08-17T10:49:08.749Z,27.68
2023-08-17T10:51:35.568Z,26.50
2023-08-17T10:54:04.095Z,26.72
2023-08-17T10:56:31.339Z,26.17
2023-08-17T10:59:04.057Z,26.70
2023-08-17T11:01:37.830Z,26.78
2023-08-17T11:04:12.435Z,26.32
2023-08-17T11:06:39.329Z,26.51
2023-08-17T11:09:09.950Z,25.90
2023-08-17T11:11:36.816Z,26.08
2023-08-17T11:14:03.769Z,25.68
2023-08-17T11:16:30.509Z,25.65
2023-08-17T11:18:59.799Z,25.78
2023-08-17T11:21:26.699Z,25.42
2023-08-17T11:23:56.884Z,24.97
2023-08-17T11:26:23.689Z,24.66
2023-08-17T11:28:50.909Z,25.33
2023-08-17T11:31:17.577Z,24.81
2023-08-17T11:33:45.903Z,24.37
2023-08-17T11:36:12.808Z,24.38
2023-08-17T11:38:44.771Z,24.54
2023-08-17T11:43:41.820Z,24.56
2023-08-17T11:46:08.765Z,24.65
2023-08-17T11:48:37.508Z,24.49
2023-08-17T11:51:05.249Z,24.55
2023-08-17T11:53:40.482Z,24.69
2023-08-17T11:56:09.971Z,23.83
2023-08-17T11:58:44.940Z,23.86
2023-08-17T12:01:13.230Z,24.23
2023-08-17T12:03:41.999Z,24.30
2023-08-17T12:06:09.566Z,24.05
2023-08-17T12:08:36.445Z,23.43
2023-08-17T12:11:07.041Z,23.72
2023-08-17T12:13:37.042Z,24.02
2023-08-17T12:16:04.700Z,23.88
2023-08-17T12:18:35.419Z,23.46
2023-08-17T12:21:02.491Z,22.64
2023-08-17T12:23:29.644Z,22.48
2023-08-17T12:25:56.808Z,22.47
2023-08-17T12:28:24.598Z,23.57
2023-08-17T12:31:01.865Z,24.76
2023-08-17T12:33:28.702Z,24.17
2023-08-17T12:35:56.801Z,23.08
2023-08-17T12:38:25.281Z,22.71
2023-08-17T12:40:51.877Z,23.14
2023-08-17T12:43:18.538Z,23.97
2023-08-17T12:45:45.177Z,24.14
2023-08-17T12:48:11.788Z,24.63
2023-08-17T12:50:43.401Z,24.99
2023-08-17T12:53:10.635Z,24.92
2023-08-17T12:55:37.281Z,24.60
2023-08-17T12:58:04.023Z,24.79
2023-08-17T13:00:30.621Z,24.59
2023-08-17T13:02:57.202Z,24.75
2023-08-17T13:05:23.907Z,25.46
2023-08-17T13:07:50.567Z,25.22
2023-08-17T13:10:17.243Z,25.31
2023-08-17T13:12:43.964Z,25.59
2023-08-17T13:15:10.596Z,25.86
2023-08-17T13:17:37.236Z,25.89
2023-08-17T13:20:06.238Z,25.71
2023-08-17T13:22:33.721Z,25.85
2023-08-17T13:25:00.372Z,26.21
2023-08-17T13:27:26.992Z,26.18
2023-08-17T13:29:53.608Z,25.33
2023-08-17T13:32:20.200Z,24.82
2023-08-17T13:34:46.986Z,24.94
2023-08-17T13:37:13.593Z,25.24
2023-08-17T13:39:40.184Z,24.89
2023-08-17T13:42:06.905Z,24.72
2023-08-17T13:44:33.457Z,25.41
2023-08-17T13:47:00.087Z,25.63
2023-08-17T13:49:28.678Z,25.59
2023-08-17T13:51:57.428Z,25.48
2023-08-17T13:54:24.917Z,26.16
2023-08-17T13:56:52.436Z,26.30
2023-08-17T13:59:19.023Z,26.65
2023-08-17T14:01:45.764Z,26.87
2023-08-17T14:04:13.411Z,26.83
2023-08-17T14:06:40.169Z,26.69
2023-08-17T14:09:06.900Z,26.53
2023-08-17T14:11:33.572Z,26.87
2023-08-17T14:14:00.258Z,27.25
2023-08-17T14:16:34.312Z,27.36
2023-08-17T14:19:00.925Z,27.12
2023-08-17T14:21:27.551Z,26.55
2023-08-17T14:23:54.164Z,26.83
2023-08-17T14:26:20.744Z,26.49
2023-08-17T14:28:47.352Z,26.07
2023-08-17T14:31:18.258Z,25.03
2023-08-17T14:33:48.925Z,25.36
2023-08-17T14:38:45.593Z,25.23
2023-08-17T14:41:12.463Z,24.07
2023-08-17T14:43:39.062Z,24.33
2023-08-17T14:46:05.792Z,23.91
2023-08-17T14:48:32.483Z,24.04
2023-08-17T14:50:59.087Z,23.87
2023-08-17T14:53:25.782Z,24.38
2023-08-17T14:55:52.461Z,24.21
2023-08-17T14:58:19.312Z,24.68
2023-08-17T15:00:45.964Z,24.89
2023-08-17T15:03:12.659Z,25.53
2023-08-17T15:05:39.419Z,26.40
2023-08-17T15:08:06.526Z,26.48
2023-08-17T15:10:34.624Z,25.92
2023-08-17T15:13:01.326Z,25.96
2023-08-17T15:15:28.028Z,26.34
2023-08-17T15:17:54.674Z,25.38
2023-08-17T15:20:21.292Z,25.81
2023-08-17T15:22:47.905Z,26.74
2023-08-17T15:25:14.509Z,26.75
2023-08-17T15:27:41.064Z,26.66
2023-08-17T15:30:08.330Z,26.57
2023-08-17T15:32:35.165Z,26.67
2023-08-17T15:35:01.799Z,27.09
2023-08-17T15:37:30.036Z,27.58
2023-08-17T15:39:56.966Z,27.22
2023-08-17T15:42:23.560Z,27.72
2023-08-17T15:44:51.756Z,27.97
2023-08-17T15:47:18.371Z,28.05
2023-08-17T15:49:45.989Z,28.20
2023-08-17T15:52:12.914Z,28.48
2023-08-17T15:54:39.493Z,28.22
2023-08-17T15:57:06.232Z,28.41
2023-08-17T15:59:32.973Z,28.52
2023-08-17T16:01:59.975Z,28.36
2023-08-17T16:04:26.650Z,28.20
2023-08-17T16:06:53.421Z,28.56
2023-08-17T16:09:22.178Z,28.57
2023-08-17T16:11:49.204Z,28.15
2023-08-17T16:14:15.807Z,28.46
2023-08-17T16:16:42.496Z,28.99
2023-08-17T16:19:09.272Z,29.32
2023-08-17T16:21:38.273Z,30.21
2023-08-17T16:24:05.611Z,30.34
2023-08-17T16:26:35.252Z,30.55
2023-08-17T16:29:02.298Z,31.29
2023-08-17T16:31:29.212Z,32.13
2023-08-17T16:33:55.919Z,31.78
2023-08-17T16:36:22.634Z,31.77
2023-08-17T16:38:55.116Z,33.53
2023-08-17T16:41:22.435Z,34.87
2023-08-17T16:43:49.179Z,37.07
2023-08-17T16:46:16.393Z,38.31
2023-08-17T16:48:43.078Z,41.37
2023-08-17T16:51:09.666Z,44.88
2023-08-17T16:53:36.506Z,45.55
2023-08-17T16:56:03.291Z,48.69
2023-08-17T16:58:29.877Z,51.00
2023-08-17T17:00:56.579Z,53.54
2023-08-17T17:03:23.222Z,54.35
2023-08-17T17:05:49.814Z,55.09
2023-08-17T17:08:16.417Z,55.59
2023-08-17T17:10:43.004Z,55.38
2023-08-17T17:13:09.722Z,56.56
2023-08-17T17:15:36.361Z,58.07
2023-08-17T17:18:03.059Z,57.71
2023-08-17T17:20:32.149Z,57.87
2023-08-17T17:22:59.043Z,57.08
2023-08-17T17:25:25.813Z,57.86
2023-08-17T17:27:52.636Z,58.71
2023-08-17T17:30:19.240Z,57.91
2023-08-17T17:32:46.085Z,58.22
2023-08-17T17:35:12.808Z,57.77
2023-08-17T17:37:39.403Z,58.53
2023-08-17T17:40:06.981Z,58.05
2023-08-17T17:42:33.588Z,58.45
2023-08-17T17:45:00.203Z,58.71
2023-08-17T17:47:27.371Z,58.99
2023-08-17T17:49:54.438Z,58.99
2023-08-17T17:52:21.034Z,59.11
2023-08-17T17:54:47.601Z,59.16
2023-08-17T17:57:14.203Z,59.36
2023-08-17T17:59:40.824Z,60.06
2023-08-17T18:02:07.516Z,59.67
2023-08-17T18:04:34.180Z,59.19
2023-08-17T18:07:00.783Z,59.35
2023-08-17T18:09:27.865Z,59.15
2023-08-17T18:11:54.475Z,58.78
2023-08-17T18:14:21.045Z,58.39
2023-08-17T18:16:47.738Z,59.27
2023-08-17T18:19:15.422Z,59.26
2023-08-17T18:21:42.006Z,59.67
2023-08-17T18:24:08.622Z,59.58
2023-08-17T18:26:35.234Z,59.47
2023-08-17T18:29:02.136Z,59.78
2023-08-17T18:31:29.064Z,59.38
2023-08-17T18:33:55.715Z,59.33
2023-08-17T18:36:22.417Z,59.19
2023-08-17T18:38:49.084Z,59.70
2023-08-17T18:41:15.981Z,59.74
2023-08-17T18:43:42.536Z,59.87
2023-08-17T18:46:09.206Z,59.59
2023-08-17T18:48:35.969Z,59.84
2023-08-17T18:51:02.645Z,59.70
2023-08-17T18:53:29.212Z,58.97
2023-08-17T18:55:55.854Z,61.72
2023-08-17T18:58:22.480Z,60.85
2023-08-17T19:00:49.071Z,60.13
2023-08-17T19:03:16.081Z,60.13
2023-08-17T19:05:42.799Z,59.53
2023-08-17T19:08:09.527Z,59.56
2023-08-17T19:10:36.393Z,59.89
2023-08-17T19:13:03.587Z,59.48
2023-08-17T19:15:30.228Z,59.52
2023-08-17T19:17:56.814Z,59.42
2023-08-17T19:20:23.428Z,59.28
2023-08-17T19:22:50.164Z,59.81
2023-08-17T19:25:16.781Z,59.53
2023-08-17T19:27:43.364Z,60.08
2023-08-17T19:30:11.760Z,59.65
2023-08-17T19:32:41.896Z,60.12
2023-08-17T19:35:08.784Z,59.92
2023-08-17T19:37:35.643Z,60.30
2023-08-17T19:40:04.167Z,60.10
2023-08-17T19:42:31.131Z,60.04
2023-08-17T19:44:57.715Z,60.34
2023-08-17T19:47:24.537Z,59.70
2023-08-17T19:49:51.178Z,59.58
2023-08-17T19:52:17.888Z,59.76
2023-08-17T19:54:49.465Z,59.58
2023-08-17T19:57:16.097Z,59.82
2023-08-17T19:59:42.668Z,59.99
2023-08-17T20:02:09.228Z,60.00
2023-08-17T20:04:35.887Z,59.96
2023-08-17T20:07:04.247Z,59.73
2023-08-17T20:09:30.847Z,59.86
2023-08-17T20:11:57.431Z,60.00
2023-08-17T20:14:23.989Z,60.06
2023-08-17T20:16:50.580Z,60.22
2023-08-17T20:19:17.195Z,60.46
2023-08-17T20:21:43.796Z,59.75
2023-08-17T20:24:10.743Z,59.83
2023-08-17T20:26:38.379Z,59.27
2023-08-17T20:29:05.015Z,59.68
2023-08-17T20:31:31.721Z,59.77
2023-08-17T20:33:58.324Z,59.17
2023-08-17T20:36:24.896Z,59.77
2023-08-17T20:38:53.041Z,59.18
2023-08-17T20:41:20.887Z,59.50
2023-08-17T20:43:47.663Z,59.32
2023-08-17T20:46:14.456Z,59.54
2023-08-17T20:48:41.375Z,59.94
2023-08-17T20:51:08.759Z,59.99
2023-08-17T20:53:36.138Z,60.51
2023-08-17T20:56:03.912Z,60.17
2023-08-17T20:58:30.639Z,60.14
2023-08-17T21:00:59.544Z,59.72
2023-08-17T21:03:26.362Z,59.73
2023-08-17T21:05:53.003Z,60.00
2023-08-17T21:08:19.681Z,60.53
2023-08-17T21:10:48.777Z,60.42
2023-08-17T21:13:15.394Z,60.72
2023-08-17T21:15:42.094Z,60.26
2023-08-17T21:18:08.825Z,60.74
2023-08-17T21:20:35.456Z,60.29
2023-08-17T21:23:02.021Z,60.69
2023-08-17T21:25:28.592Z,60.61
2023-08-17T21:27:55.233Z,60.71
2023-08-17T21:30:22.213Z,60.61
2023-08-17T21:32:49.214Z,60.35
2023-08-17T21:35:15.903Z,60.49
2023-08-17T21:37:44.159Z,60.37
2023-08-17T21:40:14.374Z,60.51
2023-08-17T21:42:40.996Z,60.07
2023-08-17T21:45:08.132Z,60.71
2023-08-17T21:47:34.699Z,60.89
2023-08-17T21:50:01.294Z,60.41
2023-08-17T21:52:27.867Z,60.33
2023-08-17T21:54:54.411Z,60.01
2023-08-17T21:57:21.006Z,59.89
2023-08-17T21:59:47.638Z,59.64
2023-08-17T22:02:14.234Z,60.09
2023-08-17T22:04:40.849Z,59.44
2023-08-17T22:07:07.442Z,59.66
2023-08-17T22:09:34.387Z,60.09
2023-08-17T22:12:01.946Z,60.06
2023-08-17T22:14:30.518Z,59.95
2023-08-17T22:16:57.799Z,59.65
2023-08-17T22:19:24.433Z,60.14
2023-08-17T22:21:51.097Z,60.62
2023-08-17T22:24:17.638Z,60.87
2023-08-17T22:26:44.376Z,60.75
2023-08-17T22:29:11.230Z,60.58
2023-08-17T22:31:37.971Z,60.25
2023-08-17T22:34:04.561Z,60.73
2023-08-17T22:36:31.224Z,61.03
2023-08-17T22:38:57.941Z,60.84
2023-08-17T22:41:24.648Z,60.85
2023-08-17T22:43:51.234Z,60.65
2023-08-17T22:46:17.881Z,60.81
2023-08-17T22:48:44.713Z,60.55
2023-08-17T22:51:14.569Z,60.38
2023-08-17T22:53:42.042Z,60.45
2023-08-17T22:56:08.667Z,60.81
2023-08-17T22:58:35.492Z,60.74
2023-08-17T23:01:02.178Z,60.56
2023-08-17T23:03:29.266Z,60.39
2023-08-17T23:05:55.969Z,60.37
2023-08-17T23:08:22.588Z,60.53
2023-08-17T23:10:49.144Z,60.52
2023-08-17T23:13:15.816Z,60.63
2023-08-17T23:15:42.517Z,60.51
2023-08-17T23:18:09.239Z,60.30
2023-08-17T23:20:36.120Z,60.40
2023-08-17T23:23:02.880Z,60.44
2023-08-17T23:25:30.205Z,60.78
2023-08-17T23:27:56.874Z,60.26
2023-08-17T23:30:23.506Z,60.21
2023-08-17T23:32:52.737Z,60.62
2023-08-17T23:35:19.728Z,60.21
2023-08-17T23:37:46.296Z,59.82
2023-08-17T23:40:12.918Z,60.16
2023-08-17T23:42:39.542Z,60.11
2023-08-17T23:45:06.823Z,59.45
2023-08-17T23:47:33.671Z,59.79
2023-08-17T23:50:00.359Z,59.31
2023-08-17T23:52:26.949Z,58.77
2023-08-17T23:54:53.504Z,59.03
2023-08-17T23:57:20.075Z,59.00
2023-08-17T23:59:46.960Z,58.75
